createdAt,value
2023-05-13T00:01:17.383Z,53.24
2023-05-13T00:04:22.241Z,53.54
2023-05-13T00:07:27.455Z,53.50
2023-05-13T00:10:31.276Z,53.81
2023-05-13T00:13:35.083Z,53.12
2023-05-13T00:16:39.533Z,53.27
2023-05-13T00:19:43.397Z,53.64
2023-05-13T00:22:48.806Z,53.41
2023-05-13T00:25:52.615Z,53.54
2023-05-13T00:28:56.518Z,53.97
2023-05-13T00:32:00.461Z,53.45
2023-05-13T00:35:04.422Z,54.71
2023-05-13T00:38:09.931Z,55.05
2023-05-13T00:41:14.252Z,54.96
2023-05-13T00:44:18.031Z,54.37
2023-05-13T00:47:23.276Z,53.98
2023-05-13T00:50:27.587Z,53.62
2023-05-13T00:53:34.766Z,54.20
2023-05-13T00:56:39.575Z,54.38
2023-05-13T00:59:43.329Z,54.02
2023-05-13T01:02:54.583Z,54.96
2023-05-13T01:06:06.161Z,55.25
2023-05-13T01:09:20.061Z,55.61
2023-05-13T01:12:31.229Z,55.76
2023-05-13T01:15:40.576Z,55.62
2023-05-13T01:18:47.736Z,55.72
2023-05-13T01:21:55.457Z,55.03
2023-05-13T01:25:27.952Z,55.59
2023-05-13T01:28:32.069Z,55.82
2023-05-13T01:31:40.233Z,56.06
2023-05-13T01:34:45.837Z,56.02
2023-05-13T01:37:52.953Z,55.45
2023-05-13T01:40:58.415Z,56.31
2023-05-13T01:44:02.339Z,56.31
2023-05-13T01:47:06.470Z,55.91
2023-05-13T01:50:11.202Z,56.34
2023-05-13T01:53:16.410Z,56.14
2023-05-13T01:56:20.472Z,55.97
2023-05-13T01:59:25.501Z,55.85
2023-05-13T02:02:29.190Z,55.80
2023-05-13T02:05:33.498Z,56.01
2023-05-13T02:08:43.363Z,55.94
2023-05-13T02:11:47.697Z,57.67
2023-05-13T02:14:52.555Z,56.42
2023-05-13T02:17:56.422Z,56.51
2023-05-13T02:21:00.256Z,57.45
2023-05-13T02:24:06.811Z,57.31
2023-05-13T02:27:13.011Z,57.25
2023-05-13T02:30:17.043Z,56.88
2023-05-13T02:33:21.587Z,58.54
2023-05-13T02:36:25.575Z,59.11
2023-05-13T02:39:31.038Z,58.75
2023-05-13T02:42:35.979Z,58.09
2023-05-13T02:45:41.992Z,58.37
2023-05-13T02:48:47.600Z,59.10
2023-05-13T02:51:51.516Z,59.45
2023-05-13T02:55:02.262Z,58.95
2023-05-13T02:58:06.142Z,58.70
2023-05-13T03:01:10.625Z,58.48
2023-05-13T03:04:14.651Z,58.89
2023-05-13T03:07:18.599Z,59.07
2023-05-13T03:10:24.076Z,58.71
2023-05-13T03:13:27.994Z,59.61
2023-05-13T03:16:33.172Z,59.76
2023-05-13T03:19:38.662Z,59.29
2023-05-13T03:22:42.639Z,59.65
2023-05-13T03:25:50.028Z,58.82
2023-05-13T03:28:54.069Z,58.79
2023-05-13T03:31:58.496Z,59.37
2023-05-13T03:35:03.063Z,59.51
2023-05-13T03:38:08.329Z,60.00
2023-05-13T03:41:17.967Z,60.16
2023-05-13T03:44:24.076Z,60.78
2023-05-13T03:47:28.274Z,59.77
2023-05-13T03:50:37.180Z,58.95
2023-05-13T03:53:41.376Z,58.21
2023-05-13T03:56:46.770Z,58.83
2023-05-13T03:59:50.562Z,57.93
2023-05-13T04:02:55.985Z,57.14
2023-05-13T04:05:59.915Z,57.51
2023-05-13T04:09:04.944Z,56.99
2023-05-13T04:12:10.158Z,57.70
2023-05-13T04:15:13.903Z,56.89
2023-05-13T04:18:17.748Z,56.34
2023-05-13T04:21:21.489Z,57.16
2023-05-13T04:24:25.806Z,56.52
2023-05-13T04:27:31.055Z,56.13
2023-05-13T04:30:49.613Z,55.29
2023-05-13T04:33:53.449Z,55.41
2023-05-13T04:36:57.262Z,55.18
2023-05-13T04:40:01.964Z,54.71
2023-05-13T04:43:07.467Z,53.47
2023-05-13T04:46:18.677Z,54.67
2023-05-13T04:49:22.649Z,56.81
2023-05-13T04:52:26.614Z,57.17
2023-05-13T04:55:30.425Z,57.38
2023-05-13T04:58:35.853Z,56.37
2023-05-13T05:01:39.873Z,56.42
2023-05-13T05:04:43.875Z,56.26
2023-05-13T05:07:50.819Z,57.22
2023-05-13T05:10:56.500Z,56.22
2023-05-13T05:14:01.995Z,55.15
2023-05-13T05:17:06.811Z,55.90
2023-05-13T05:20:12.005Z,56.07
2023-05-13T05:23:16.277Z,56.99
2023-05-13T05:26:21.039Z,56.81
2023-05-13T05:29:26.778Z,56.36
2023-05-13T05:32:31.521Z,54.81
2023-05-13T05:35:37.442Z,55.36
2023-05-13T05:38:44.089Z,54.07
2023-05-13T05:41:48.607Z,52.95
2023-05-13T05:44:54.294Z,53.08
2023-05-13T05:47:58.459Z,53.69
2023-05-13T05:51:03.562Z,52.70
2023-05-13T05:54:10.549Z,53.20
2023-05-13T05:57:15.599Z,52.72
2023-05-13T06:00:22.051Z,51.54
2023-05-13T06:03:26.261Z,52.36
2023-05-13T06:06:30.515Z,52.56
2023-05-13T06:09:34.503Z,51.65
2023-05-13T06:12:38.589Z,51.79
2023-05-13T06:15:43.955Z,50.81
2023-05-13T06:18:48.974Z,49.43
2023-05-13T06:21:53.013Z,49.13
2023-05-13T06:24:56.985Z,49.13
2023-05-13T06:28:02.863Z,49.79
2023-05-13T06:31:08.603Z,48.94
2023-05-13T06:34:16.923Z,46.42
2023-05-13T06:37:21.694Z,46.17
2023-05-13T06:40:25.836Z,45.53
2023-05-13T06:43:30.555Z,45.30
2023-05-13T06:46:37.782Z,45.22
2023-05-13T06:49:41.672Z,45.47
2023-05-13T06:52:45.872Z,45.06
2023-05-13T06:55:49.851Z,45.27
2023-05-13T06:58:54.095Z,46.23
2023-05-13T07:01:59.657Z,45.81
2023-05-13T07:05:03.592Z,46.29
2023-05-13T07:08:08.880Z,46.96
2023-05-13T07:11:12.830Z,47.65
2023-05-13T07:14:17.115Z,48.25
2023-05-13T07:17:22.790Z,47.50
2023-05-13T07:20:27.458Z,46.44
2023-05-13T07:23:31.852Z,47.26
2023-05-13T07:26:35.786Z,48.69
2023-05-13T07:29:39.650Z,46.23
2023-05-13T07:32:45.108Z,44.20
2023-05-13T07:35:49.157Z,44.33
2023-05-13T07:38:53.880Z,45.48
2023-05-13T07:41:57.938Z,44.14
2023-05-13T07:45:01.891Z,43.58
2023-05-13T07:48:07.723Z,43.84
2023-05-13T07:51:11.733Z,42.96
2023-05-13T07:54:15.734Z,42.48
2023-05-13T07:57:19.703Z,42.29
2023-05-13T08:00:23.733Z,41.50
2023-05-13T08:03:29.284Z,41.43
2023-05-13T08:06:33.334Z,41.46
2023-05-13T08:09:37.235Z,41.79
2023-05-13T08:12:41.596Z,41.53
2023-05-13T08:15:46.184Z,41.24
2023-05-13T08:18:55.523Z,41.52
2023-05-13T08:21:59.523Z,41.21
2023-05-13T08:25:04.902Z,40.01
2023-05-13T08:28:08.846Z,39.51
2023-05-13T08:31:13.931Z,39.46
2023-05-13T08:34:19.330Z,38.96
2023-05-13T08:37:23.326Z,39.50
2023-05-13T08:40:27.184Z,40.23
2023-05-13T08:43:32.756Z,40.88
2023-05-13T08:46:39.553Z,39.70
2023-05-13T08:49:45.330Z,38.09
2023-05-13T08:52:49.370Z,37.88
2023-05-13T08:55:53.748Z,38.06
2023-05-13T08:58:58.066Z,37.40
2023-05-13T09:02:04.110Z,36.76
2023-05-13T09:05:11.235Z,36.27
2023-05-13T09:08:15.599Z,34.98
2023-05-13T09:11:19.502Z,35.63
2023-05-13T09:14:23.525Z,35.07
2023-05-13T09:17:27.571Z,34.29
2023-05-13T09:20:33.978Z,33.88
2023-05-13T09:23:39.744Z,34.09
2023-05-13T09:26:44.065Z,34.71
2023-05-13T09:29:50.017Z,34.14
2023-05-13T09:33:11.621Z,33.75
2023-05-13T09:36:18.764Z,33.51
2023-05-13T09:39:22.670Z,34.32
2023-05-13T09:42:26.665Z,33.79
2023-05-13T09:45:30.493Z,33.70
2023-05-13T09:48:38.331Z,33.85
2023-05-13T09:51:45.518Z,34.27
2023-05-13T09:54:49.526Z,33.27
2023-05-13T09:57:55.300Z,33.71
2023-05-13T10:01:00.036Z,33.66
2023-05-13T10:04:06.491Z,32.80
2023-05-13T10:07:13.519Z,33.46
2023-05-13T10:10:17.534Z,33.86
2023-05-13T10:13:26.043Z,33.16
2023-05-13T10:16:30.858Z,32.87
2023-05-13T10:19:35.277Z,33.42
2023-05-13T10:22:41.774Z,33.75
2023-05-13T10:25:46.447Z,33.49
2023-05-13T10:28:50.774Z,33.97
2023-05-13T10:31:55.722Z,33.38
2023-05-13T10:35:06.912Z,33.81
2023-05-13T10:38:18.403Z,33.92
2023-05-13T10:41:41.031Z,33.22
2023-05-13T10:44:45.032Z,33.77
2023-05-13T10:47:52.153Z,33.72
2023-05-13T10:50:57.205Z,33.82
2023-05-13T10:54:02.609Z,33.77
2023-05-13T10:57:06.890Z,32.98
2023-05-13T11:00:19.365Z,32.96
2023-05-13T11:03:31.474Z,32.87
2023-05-13T11:06:36.997Z,32.71
2023-05-13T11:09:42.358Z,32.29
2023-05-13T11:13:10.060Z,32.65
2023-05-13T11:16:15.594Z,32.89
2023-05-13T11:19:25.047Z,32.52
2023-05-13T11:22:32.310Z,33.09
2023-05-13T11:25:38.364Z,33.53
2023-05-13T11:29:00.048Z,33.00
2023-05-13T11:32:05.731Z,32.94
2023-05-13T11:35:10.142Z,33.49
2023-05-13T11:38:25.427Z,32.43
2023-05-13T11:41:33.609Z,32.32
2023-05-13T11:44:38.546Z,32.32
2023-05-13T11:47:42.408Z,32.62
2023-05-13T11:50:46.364Z,32.43
2023-05-13T11:53:50.342Z,33.76
2023-05-13T11:56:56.161Z,33.17
2023-05-13T12:00:01.543Z,32.80
2023-05-13T12:03:12.239Z,33.55
2023-05-13T12:06:17.238Z,33.43
2023-05-13T12:09:24.197Z,33.21
2023-05-13T12:12:31.346Z,33.94
2023-05-13T12:15:35.413Z,34.08
2023-05-13T12:18:39.556Z,33.07
2023-05-13T12:21:43.431Z,33.70
2023-05-13T12:24:47.308Z,33.29
2023-05-13T12:27:55.169Z,32.83
2023-05-13T12:31:00.850Z,32.42
2023-05-13T12:34:06.667Z,32.62
2023-05-13T12:37:14.319Z,33.37
2023-05-13T12:40:18.405Z,33.31
2023-05-13T12:43:24.527Z,33.33
2023-05-13T12:46:29.019Z,33.00
2023-05-13T12:49:32.974Z,33.63
2023-05-13T12:52:36.954Z,34.10
2023-05-13T12:55:40.959Z,33.89
2023-05-13T12:58:46.365Z,34.09
2023-05-13T13:01:51.492Z,33.42
2023-05-13T13:04:55.308Z,34.62
2023-05-13T13:07:59.213Z,35.65
2023-05-13T13:11:03.080Z,35.85
2023-05-13T13:14:08.709Z,36.15
2023-05-13T13:17:12.738Z,36.11
2023-05-13T13:20:16.620Z,36.39
2023-05-13T13:23:20.669Z,36.40
2023-05-13T13:26:24.572Z,35.67
2023-05-13T13:29:29.990Z,35.75
2023-05-13T13:32:35.584Z,35.79
2023-05-13T13:35:39.610Z,35.88
2023-05-13T13:38:43.452Z,36.28
2023-05-13T13:41:47.540Z,36.70
2023-05-13T13:44:52.936Z,35.43
2023-05-13T13:47:56.833Z,36.29
2023-05-13T13:51:00.879Z,37.06
2023-05-13T13:54:08.396Z,35.74
2023-05-13T13:57:12.355Z,35.68
2023-05-13T14:00:18.461Z,35.81
2023-05-13T14:03:22.478Z,35.83
2023-05-13T14:06:26.599Z,35.40
2023-05-13T14:09:31.746Z,35.11
2023-05-13T14:12:36.088Z,35.07
2023-05-13T14:15:41.592Z,35.07
2023-05-13T14:18:45.560Z,35.58
2023-05-13T14:21:49.626Z,35.38
2023-05-13T14:24:53.960Z,35.73
2023-05-13T14:27:58.084Z,35.59
2023-05-13T14:31:03.487Z,35.36
2023-05-13T14:34:08.154Z,35.90
2023-05-13T14:37:12.130Z,36.65
2023-05-13T14:40:16.081Z,36.31
2023-05-13T14:43:19.998Z,36.89
2023-05-13T14:46:25.418Z,35.99
2023-05-13T14:49:29.318Z,36.27
2023-05-13T14:52:33.186Z,35.53
2023-05-13T14:55:37.145Z,35.49
2023-05-13T14:58:41.003Z,35.14
2023-05-13T15:01:46.591Z,36.13
2023-05-13T15:04:50.537Z,36.51
2023-05-13T15:07:54.455Z,37.51
2023-05-13T15:10:58.379Z,37.57
2023-05-13T15:14:03.468Z,37.89
2023-05-13T15:17:12.125Z,37.64
2023-05-13T15:20:16.149Z,37.44
2023-05-13T15:23:20.112Z,37.29
2023-05-13T15:26:23.908Z,37.52
2023-05-13T15:29:28.888Z,36.89
2023-05-13T15:32:34.636Z,37.04
2023-05-13T15:35:38.586Z,36.85
2023-05-13T15:38:42.456Z,36.62
2023-05-13T15:41:46.720Z,36.50
2023-05-13T15:44:50.715Z,36.79
2023-05-13T15:47:56.196Z,36.61
2023-05-13T15:51:00.237Z,36.53
2023-05-13T15:54:04.171Z,37.41
2023-05-13T15:57:09.338Z,37.20
2023-05-13T16:00:14.687Z,36.88
2023-05-13T16:03:20.267Z,37.93
2023-05-13T16:06:24.324Z,38.36
2023-05-13T16:09:28.235Z,38.77
2023-05-13T16:12:32.782Z,39.03
2023-05-13T16:15:36.669Z,39.46
2023-05-13T16:18:43.278Z,39.49
2023-05-13T16:21:47.469Z,39.26
2023-05-13T16:24:51.436Z,39.52
2023-05-13T16:27:56.796Z,40.23
2023-05-13T16:31:00.959Z,40.47
2023-05-13T16:34:06.418Z,40.69
2023-05-13T16:37:10.279Z,41.04
2023-05-13T16:40:15.290Z,40.78
2023-05-13T16:43:19.168Z,41.29
2023-05-13T16:46:23.142Z,41.88
2023-05-13T16:49:28.596Z,42.14
2023-05-13T16:52:34.353Z,42.04
2023-05-13T16:55:38.313Z,42.32
2023-05-13T16:58:42.200Z,42.79
2023-05-13T17:01:46.174Z,43.18
2023-05-13T17:04:51.745Z,43.85
2023-05-13T17:07:55.720Z,44.27
2023-05-13T17:10:59.591Z,44.32
2023-05-13T17:14:04.037Z,44.72
2023-05-13T17:17:07.954Z,45.06
2023-05-13T17:20:14.540Z,45.13
2023-05-13T17:23:18.464Z,45.35
2023-05-13T17:26:22.658Z,45.96
2023-05-13T17:29:26.678Z,45.70
2023-05-13T17:32:32.022Z,46.09
2023-05-13T17:35:37.436Z,46.41
2023-05-13T17:38:41.322Z,46.34
2023-05-13T17:41:45.311Z,46.53
2023-05-13T17:44:49.243Z,46.73
2023-05-13T17:47:53.303Z,46.89
2023-05-13T17:50:59.297Z,46.91
2023-05-13T17:54:03.285Z,47.06
2023-05-13T17:57:07.479Z,47.23
2023-05-13T18:00:12.500Z,47.28
2023-05-13T18:03:16.616Z,47.20
2023-05-13T18:06:22.136Z,47.92
2023-05-13T18:09:26.056Z,47.46
2023-05-13T18:12:31.066Z,47.21
2023-05-13T18:15:35.160Z,47.88
2023-05-13T18:18:39.049Z,48.03
2023-05-13T18:21:45.839Z,47.55
2023-05-13T18:24:49.792Z,48.00
2023-05-13T18:27:53.847Z,48.37
2023-05-13T18:30:57.820Z,49.09
2023-05-13T18:34:01.826Z,49.00
2023-05-13T18:37:08.027Z,49.62
2023-05-13T18:40:12.753Z,49.93
2023-05-13T18:43:16.697Z,49.76
2023-05-13T18:46:21.385Z,49.97
2023-05-13T18:49:28.490Z,50.46
2023-05-13T18:52:33.932Z,50.50
2023-05-13T18:55:38.166Z,51.04
2023-05-13T18:58:42.085Z,51.34
2023-05-13T19:01:46.086Z,51.78
2023-05-13T19:04:49.938Z,51.38
2023-05-13T19:07:55.496Z,50.98
2023-05-13T19:10:59.378Z,50.96
2023-05-13T19:14:03.333Z,51.55
2023-05-13T19:17:07.566Z,52.52
2023-05-13T19:20:12.730Z,51.34
2023-05-13T19:23:18.213Z,52.04
2023-05-13T19:26:22.627Z,52.12
2023-05-13T19:29:27.126Z,52.20
2023-05-13T19:32:31.262Z,52.66
2023-05-13T19:35:35.508Z,53.53
2023-05-13T19:38:40.982Z,54.82
2023-05-13T19:41:44.902Z,55.23
2023-05-13T19:44:48.965Z,55.63
2023-05-13T19:47:52.983Z,56.19
2023-05-13T19:50:58.259Z,57.03
2023-05-13T19:54:03.622Z,56.50
2023-05-13T19:57:08.033Z,56.75
2023-05-13T20:00:13.913Z,57.96
2023-05-13T20:03:18.103Z,58.73
2023-05-13T20:06:22.156Z,57.79
2023-05-13T20:09:27.589Z,58.24
2023-05-13T20:12:31.512Z,59.34
2023-05-13T20:15:35.530Z,59.39
2023-05-13T20:18:39.721Z,58.53
2023-05-13T20:21:43.674Z,58.89
2023-05-13T20:24:49.568Z,58.47
2023-05-13T20:27:53.454Z,58.18
2023-05-13T20:30:57.467Z,58.00
2023-05-13T20:34:01.372Z,57.80
2023-05-13T20:37:05.636Z,57.24
2023-05-13T20:40:11.887Z,56.48
2023-05-13T20:43:17.055Z,56.87
2023-05-13T20:46:21.082Z,56.73
2023-05-13T20:49:24.973Z,55.79
2023-05-13T20:52:28.875Z,56.16
2023-05-13T20:55:34.398Z,55.59
2023-05-13T20:58:38.322Z,56.17
2023-05-13T21:01:47.660Z,56.17
2023-05-13T21:04:51.716Z,57.01
2023-05-13T21:07:55.846Z,57.04
2023-05-13T21:11:01.243Z,56.41
2023-05-13T21:14:05.298Z,56.16
2023-05-13T21:17:09.263Z,55.00
2023-05-13T21:20:14.342Z,54.92
2023-05-13T21:23:20.369Z,55.31
2023-05-13T21:26:26.331Z,55.12
2023-05-13T21:29:30.929Z,54.41
2023-05-13T21:32:35.180Z,54.72
2023-05-13T21:35:39.130Z,54.25
2023-05-13T21:38:43.041Z,54.57
2023-05-13T21:41:48.442Z,54.46
2023-05-13T21:44:52.335Z,54.15
2023-05-13T21:47:56.449Z,54.22
2023-05-13T21:51:00.422Z,53.88
2023-05-13T21:54:05.280Z,54.77
2023-05-13T21:57:11.495Z,55.61
2023-05-13T22:00:19.069Z,55.75
2023-05-13T22:03:22.899Z,56.29
2023-05-13T22:06:26.898Z,56.02
2023-05-13T22:09:30.777Z,56.46
2023-05-13T22:12:36.187Z,56.29
2023-05-13T22:15:40.056Z,55.79
2023-05-13T22:18:44.433Z,55.87
2023-05-13T22:21:48.596Z,55.20
2023-05-13T22:24:52.547Z,55.51
2023-05-13T22:27:57.903Z,55.83
2023-05-13T22:31:01.963Z,55.49
2023-05-13T22:34:05.993Z,54.90
2023-05-13T22:37:09.885Z,54.84
2023-05-13T22:40:14.794Z,55.38
2023-05-13T22:43:20.240Z,55.25
2023-05-13T22:46:24.161Z,55.70
2023-05-13T22:49:28.095Z,55.83
2023-05-13T22:52:32.092Z,55.99
2023-05-13T22:55:35.994Z,56.97
2023-05-13T22:58:41.515Z,57.17
2023-05-13T23:01:45.569Z,56.16
2023-05-13T23:04:49.461Z,57.04
2023-05-13T23:07:53.352Z,56.73
2023-05-13T23:10:57.709Z,56.73
2023-05-13T23:14:03.103Z,56.46
2023-05-13T23:17:07.072Z,56.86
2023-05-13T23:20:12.519Z,56.23
2023-05-13T23:23:16.316Z,55.53
2023-05-13T23:26:20.264Z,56.32
2023-05-13T23:29:27.895Z,55.61
2023-05-13T23:32:31.830Z,55.91
2023-05-13T23:35:36.101Z,55.90
2023-05-13T23:38:39.965Z,55.08
2023-05-13T23:41:43.897Z,54.96
2023-05-13T23:44:49.293Z,55.35
2023-05-13T23:47:53.250Z,55.24
2023-05-13T23:50:57.235Z,54.45
2023-05-13T23:54:01.353Z,54.53
2023-05-13T23:57:05.388Z,55.37
